Terminal Aerodrome Forecast
Issued by NWS

Home | Current Version | Previous Version | Text Only | Print | Product List | Glossary On
Versions: 1 2 3 4 5 6 7 8 9 10 11 12
207
FTPA31 PHFO 261752
TAFHJH
TAF
PHJH 261752Z 2618/2718 05009KT P6SM VCSH SCT025 BKN040
     FM262000 05015G21KT P6SM FEW025 SCT040
     FM270800 05009KT P6SM FEW025 SCT040=

USA.gov is the U.S. government's official web portal to all federal, state and local government web resources and services.